sensor_id;sensor_type;location;lat;lon;timestamp;pressure;altitude;pressure_sealevel;temperature;humidity
25510;BME280;13413;52.336;21.200;2022-10-28T00:02:45;101547.15;;;12.34;63.20
25510;BME280;13413;52.336;21.200;2022-10-28T00:06:09;101540.42;;;12.27;63.10
25510;BME280;13413;52.336;21.200;2022-10-28T00:09:42;101537.56;;;12.32;63.14
25510;BME280;13413;52.336;21.200;2022-10-28T00:13:15;101536.58;;;12.40;63.25
25510;BME280;13413;52.336;21.200;2022-10-28T00:16:36;101534.95;;;12.45;63.47
25510;BME280;13413;52.336;21.200;2022-10-28T00:20:17;101534.56;;;12.56;63.12
25510;BME280;13413;52.336;21.200;2022-10-28T00:23:38;101532.64;;;12.59;63.07
25510;BME280;13413;52.336;21.200;2022-10-28T00:26:59;101534.59;;;12.56;62.95
25510;BME280;13413;52.336;21.200;2022-10-28T00:30:18;101530.39;;;12.48;63.15
25510;BME280;13413;52.336;21.200;2022-10-28T00:39:40;101521.08;;;12.39;65.09
25510;BME280;13413;52.336;21.200;2022-10-28T00:43:01;101516.80;;;12.41;65.38
25510;BME280;13413;52.336;21.200;2022-10-28T00:46:27;101516.66;;;12.41;65.45
25510;BME280;13413;52.336;21.200;2022-10-28T00:49:49;101513.41;;;12.43;65.82
25510;BME280;13413;52.336;21.200;2022-10-28T00:53:27;101510.38;;;12.48;65.87
25510;BME280;13413;52.336;21.200;2022-10-28T00:56:51;101508.21;;;12.43;65.88
25510;BME280;13413;52.336;21.200;2022-10-28T01:00:19;101509.83;;;12.38;66.13
25510;BME280;13413;52.336;21.200;2022-10-28T01:03:39;101506.43;;;12.36;66.54
25510;BME280;13413;52.336;21.200;2022-10-28T01:06:59;101503.16;;;12.37;66.61
25510;BME280;13413;52.336;21.200;2022-10-28T01:10:46;101500.20;;;12.42;66.66
25510;BME280;13413;52.336;21.200;2022-10-28T01:14:29;101503.24;;;12.40;66.82
25510;BME280;13413;52.336;21.200;2022-10-28T01:18:21;101493.04;;;12.42;66.81
25510;BME280;13413;52.336;21.200;2022-10-28T01:26:01;101493.27;;;12.49;67.07
25510;BME280;13413;52.336;21.200;2022-10-28T01:29:48;101492.84;;;12.48;67.19
25510;BME280;13413;52.336;21.200;2022-10-28T01:33:20;101493.13;;;12.50;67.28
25510;BME280;13413;52.336;21.200;2022-10-28T01:36:50;101491.98;;;12.49;67.31
25510;BME280;13413;52.336;21.200;2022-10-28T01:40:25;101486.09;;;12.49;67.51
25510;BME280;13413;52.336;21.200;2022-10-28T01:44:05;101486.19;;;12.47;67.54
25510;BME280;13413;52.336;21.200;2022-10-28T01:47:35;101490.75;;;12.47;67.62
25510;BME280;13413;52.336;21.200;2022-10-28T01:51:00;101496.83;;;12.50;67.56
25510;BME280;13413;52.336;21.200;2022-10-28T01:54:37;101502.05;;;12.49;67.59
25510;BME280;13413;52.336;21.200;2022-10-28T01:58:14;101503.73;;;12.50;67.62
25510;BME280;13413;52.336;21.200;2022-10-28T02:10:26;101496.20;;;12.48;67.83
25510;BME280;13413;52.336;21.200;2022-10-28T02:13:54;101495.67;;;12.51;67.84
25510;BME280;13413;52.336;21.200;2022-10-28T02:17:33;101482.80;;;12.52;67.95
25510;BME280;13413;52.336;21.200;2022-10-28T02:28:55;101471.05;;;12.46;68.25
25510;BME280;13413;52.336;21.200;2022-10-28T02:32:28;101467.69;;;12.47;68.21
25510;BME280;13413;52.336;21.200;2022-10-28T02:35:57;101467.75;;;12.47;68.37
25510;BME280;13413;52.336;21.200;2022-10-28T02:39:21;101464.89;;;12.55;68.41
25510;BME280;13413;52.336;21.200;2022-10-28T02:42:51;101469.30;;;12.72;68.36
25510;BME280;13413;52.336;21.200;2022-10-28T02:46:22;101458.72;;;12.73;68.14
25510;BME280;13413;52.336;21.200;2022-10-28T02:49:46;101461.71;;;12.60;68.15
25510;BME280;13413;52.336;21.200;2022-10-28T02:53:12;101462.63;;;12.55;68.29
25510;BME280;13413;52.336;21.200;2022-10-28T02:56:38;101450.55;;;12.57;68.27
25510;BME280;13413;52.336;21.200;2022-10-28T03:00:03;101449.66;;;12.52;68.28
25510;BME280;13413;52.336;21.200;2022-10-28T03:03:37;101450.16;;;12.47;68.35
25510;BME280;13413;52.336;21.200;2022-10-28T03:06:58;101452.80;;;12.52;68.41
25510;BME280;13413;52.336;21.200;2022-10-28T03:10:27;101452.70;;;12.46;68.36
25510;BME280;13413;52.336;21.200;2022-10-28T03:13:47;101452.12;;;12.47;68.44
25510;BME280;13413;52.336;21.200;2022-10-28T03:17:07;101454.90;;;12.52;68.56
25510;BME280;13413;52.336;21.200;2022-10-28T03:34:07;101445.15;;;12.34;68.41
25510;BME280;13413;52.336;21.200;2022-10-28T03:37:27;101448.86;;;12.31;68.55
25510;BME280;13413;52.336;21.200;2022-10-28T03:40:49;101449.39;;;12.24;68.68
25510;BME280;13413;52.336;21.200;2022-10-28T03:44:10;101446.14;;;12.17;68.79
25510;BME280;13413;52.336;21.200;2022-10-28T03:47:30;101442.46;;;12.14;68.82
25510;BME280;13413;52.336;21.200;2022-10-28T03:50:52;101439.10;;;12.11;69.03
25510;BME280;13413;52.336;21.200;2022-10-28T03:54:20;101437.45;;;12.09;68.97
25510;BME280;13413;52.336;21.200;2022-10-28T03:57:39;101430.63;;;12.10;69.05
25510;BME280;13413;52.336;21.200;2022-10-28T04:00:58;101429.22;;;12.19;69.14
25510;BME280;13413;52.336;21.200;2022-10-28T04:05:52;101431.19;;;12.45;68.99
25510;BME280;13413;52.336;21.200;2022-10-28T04:09:13;101432.70;;;12.51;68.66
25510;BME280;13413;52.336;21.200;2022-10-28T04:12:33;101431.10;;;12.49;68.43
25510;BME280;13413;52.336;21.200;2022-10-28T04:15:52;101432.04;;;12.41;68.44
25510;BME280;13413;52.336;21.200;2022-10-28T04:19:12;101431.74;;;12.42;68.60
25510;BME280;13413;52.336;21.200;2022-10-28T04:22:31;101433.55;;;12.46;68.52
25510;BME280;13413;52.336;21.200;2022-10-28T04:25:54;101432.81;;;12.51;68.47
25510;BME280;13413;52.336;21.200;2022-10-28T04:30:48;101438.63;;;12.62;68.41
25510;BME280;13413;52.336;21.200;2022-10-28T04:34:07;101437.63;;;12.65;68.33
25510;BME280;13413;52.336;21.200;2022-10-28T04:37:43;101435.35;;;12.68;68.11
25510;BME280;13413;52.336;21.200;2022-10-28T04:41:03;101427.05;;;12.63;67.89
25510;BME280;13413;52.336;21.200;2022-10-28T04:44:37;101426.48;;;12.49;67.82
25510;BME280;13413;52.336;21.200;2022-10-28T04:48:10;101427.08;;;12.32;67.95
25510;BME280;13413;52.336;21.200;2022-10-28T04:51:30;101429.48;;;12.18;68.10
25510;BME280;13413;52.336;21.200;2022-10-28T04:55:11;101423.29;;;12.15;68.37
25510;BME280;13413;52.336;21.200;2022-10-28T04:58:31;101424.23;;;12.09;68.46
25510;BME280;13413;52.336;21.200;2022-10-28T05:01:55;101427.70;;;12.00;68.62
25510;BME280;13413;52.336;21.200;2022-10-28T05:05:23;101426.39;;;11.98;68.69
25510;BME280;13413;52.336;21.200;2022-10-28T05:08:56;101416.75;;;11.90;68.88
25510;BME280;13413;52.336;21.200;2022-10-28T05:12:16;101412.34;;;11.87;68.91
25510;BME280;13413;52.336;21.200;2022-10-28T05:15:42;101413.48;;;11.83;69.10
25510;BME280;13413;52.336;21.200;2022-10-28T05:19:16;101410.00;;;11.79;69.36
25510;BME280;13413;52.336;21.200;2022-10-28T05:22:47;101409.45;;;11.80;69.25
25510;BME280;13413;52.336;21.200;2022-10-28T05:26:07;101407.52;;;11.80;69.40
25510;BME280;13413;52.336;21.200;2022-10-28T05:29:27;101402.89;;;11.84;69.43
25510;BME280;13413;52.336;21.200;2022-10-28T05:33:01;101399.61;;;11.91;69.54
25510;BME280;13413;52.336;21.200;2022-10-28T05:36:21;101399.20;;;12.05;69.41
25510;BME280;13413;52.336;21.200;2022-10-28T05:39:47;101396.96;;;12.17;69.26
25510;BME280;13413;52.336;21.200;2022-10-28T05:43:20;101397.73;;;12.28;69.19
25510;BME280;13413;52.336;21.200;2022-10-28T05:46:40;101396.95;;;12.32;68.87
25510;BME280;13413;52.336;21.200;2022-10-28T05:59:17;101395.32;;;11.93;69.35
25510;BME280;13413;52.336;21.200;2022-10-28T06:02:43;101394.62;;;11.90;69.59
25510;BME280;13413;52.336;21.200;2022-10-28T06:06:02;101391.36;;;11.91;69.73
25510;BME280;13413;52.336;21.200;2022-10-28T06:09:22;101391.41;;;11.93;69.70
25510;BME280;13413;52.336;21.200;2022-10-28T06:12:41;101387.32;;;11.94;70.04
25510;BME280;13413;52.336;21.200;2022-10-28T06:16:00;101384.13;;;12.01;69.93
25510;BME280;13413;52.336;21.200;2022-10-28T06:19:34;101382.06;;;12.08;69.98
25510;BME280;13413;52.336;21.200;2022-10-28T06:23:08;101380.48;;;12.18;70.02
25510;BME280;13413;52.336;21.200;2022-10-28T06:35:17;101378.58;;;12.34;70.04
25510;BME280;13413;52.336;21.200;2022-10-28T06:38:37;101375.42;;;12.42;70.08
25510;BME280;13413;52.336;21.200;2022-10-28T06:41:57;101371.77;;;12.42;70.07
25510;BME280;13413;52.336;21.200;2022-10-28T06:45:27;101369.48;;;12.43;70.07
25510;BME280;13413;52.336;21.200;2022-10-28T06:48:47;101367.75;;;12.44;70.24
25510;BME280;13413;52.336;21.200;2022-10-28T06:52:06;101364.63;;;12.45;70.56
25510;BME280;13413;52.336;21.200;2022-10-28T06:55:33;101374.95;;;12.53;70.50
25510;BME280;13413;52.336;21.200;2022-10-28T06:59:07;101380.59;;;12.60;70.57
25510;BME280;13413;52.336;21.200;2022-10-28T07:02:33;101381.87;;;12.65;70.73
25510;BME280;13413;52.336;21.200;2022-10-28T07:05:53;101383.15;;;12.71;70.78
25510;BME280;13413;52.336;21.200;2022-10-28T07:09:26;101381.48;;;12.77;70.91
25510;BME280;13413;52.336;21.200;2022-10-28T07:12:59;101385.19;;;12.87;71.12
25510;BME280;13413;52.336;21.200;2022-10-28T07:29:45;101386.03;;;13.18;71.58
25510;BME280;13413;52.336;21.200;2022-10-28T07:33:06;101382.56;;;13.24;71.50
25510;BME280;13413;52.336;21.200;2022-10-28T07:36:26;101381.10;;;13.32;71.66
25510;BME280;13413;52.336;21.200;2022-10-28T07:39:46;101377.91;;;13.42;71.61
25510;BME280;13413;52.336;21.200;2022-10-28T07:43:07;101371.21;;;13.45;72.08
25510;BME280;13413;52.336;21.200;2022-10-28T07:46:26;101372.52;;;13.55;71.97
25510;BME280;13413;52.336;21.200;2022-10-28T07:50:00;101367.77;;;13.69;72.07
25510;BME280;13413;52.336;21.200;2022-10-28T07:53:34;101363.70;;;13.66;72.68
25510;BME280;13413;52.336;21.200;2022-10-28T07:56:53;101366.12;;;13.80;72.24
25510;BME280;13413;52.336;21.200;2022-10-28T08:00:12;101364.81;;;13.93;72.44
25510;BME280;13413;52.336;21.200;2022-10-28T08:03:34;101367.29;;;14.03;72.36
25510;BME280;13413;52.336;21.200;2022-10-28T08:06:53;101370.11;;;14.13;72.36
25510;BME280;13413;52.336;21.200;2022-10-28T08:10:13;101375.07;;;14.20;72.13
25510;BME280;13413;52.336;21.200;2022-10-28T08:13:47;101371.84;;;14.25;71.97
25510;BME280;13413;52.336;21.200;2022-10-28T08:17:07;101373.18;;;14.35;72.04
25510;BME280;13413;52.336;21.200;2022-10-28T08:20:34;101367.95;;;14.43;72.18
25510;BME280;13413;52.336;21.200;2022-10-28T08:23:55;101365.65;;;14.59;72.19
25510;BME280;13413;52.336;21.200;2022-10-28T08:27:15;101358.44;;;14.83;72.49
25510;BME280;13413;52.336;21.200;2022-10-28T08:39:47;101349.89;;;15.07;71.85
25510;BME280;13413;52.336;21.200;2022-10-28T08:43:16;101349.61;;;15.22;72.01
25510;BME280;13413;52.336;21.200;2022-10-28T08:46:55;101355.62;;;15.44;71.68
25510;BME280;13413;52.336;21.200;2022-10-28T08:50:40;101353.26;;;15.59;71.58
25510;BME280;13413;52.336;21.200;2022-10-28T09:00:07;101355.55;;;16.03;70.64
25510;BME280;13413;52.336;21.200;2022-10-28T09:03:29;101349.59;;;15.98;70.50
25510;BME280;13413;52.336;21.200;2022-10-28T09:06:49;101349.38;;;15.86;70.65
25510;BME280;13413;52.336;21.200;2022-10-28T09:10:13;101344.27;;;15.95;71.00
25510;BME280;13413;52.336;21.200;2022-10-28T09:14:02;101345.11;;;16.20;70.75
25510;BME280;13413;52.336;21.200;2022-10-28T09:17:31;101341.96;;;16.46;70.41
25510;BME280;13413;52.336;21.200;2022-10-28T09:21:08;101337.81;;;16.97;70.31
25510;BME280;13413;52.336;21.200;2022-10-28T09:24:42;101339.58;;;17.24;69.29
25510;BME280;13413;52.336;21.200;2022-10-28T09:28:18;101338.81;;;17.38;68.64
25510;BME280;13413;52.336;21.200;2022-10-28T09:31:43;101341.84;;;17.53;68.63
25510;BME280;13413;52.336;21.200;2022-10-28T09:35:05;101336.31;;;17.63;68.29
25510;BME280;13413;52.336;21.200;2022-10-28T09:38:29;101344.20;;;17.78;67.90
25510;BME280;13413;52.336;21.200;2022-10-28T09:41:51;101340.36;;;17.62;67.65
25510;BME280;13413;52.336;21.200;2022-10-28T09:45:15;101337.92;;;17.70;67.44
25510;BME280;13413;52.336;21.200;2022-10-28T09:48:38;101337.22;;;17.94;66.89
25510;BME280;13413;52.336;21.200;2022-10-28T09:52:12;101330.70;;;18.25;67.28
25510;BME280;13413;52.336;21.200;2022-10-28T09:59:10;101319.45;;;18.69;66.17
25510;BME280;13413;52.336;21.200;2022-10-28T10:02:33;101319.31;;;18.60;65.66
25510;BME280;13413;52.336;21.200;2022-10-28T10:05:57;101316.86;;;18.72;66.06
25510;BME280;13413;52.336;21.200;2022-10-28T10:09:23;101315.38;;;18.99;65.65
25510;BME280;13413;52.336;21.200;2022-10-28T10:12:43;101311.87;;;19.16;65.10
25510;BME280;13413;52.336;21.200;2022-10-28T10:16:10;101310.74;;;19.56;64.88
25510;BME280;13413;52.336;21.200;2022-10-28T10:19:58;101310.84;;;19.81;64.02
25510;BME280;13413;52.336;21.200;2022-10-28T10:23:28;101310.13;;;19.53;62.80
25510;BME280;13413;52.336;21.200;2022-10-28T10:26:49;101305.66;;;19.77;63.28
25510;BME280;13413;52.336;21.200;2022-10-28T10:30:21;101303.54;;;20.12;62.43
25510;BME280;13413;52.336;21.200;2022-10-28T10:33:42;101305.82;;;20.18;61.83
25510;BME280;13413;52.336;21.200;2022-10-28T10:37:01;101300.20;;;20.14;62.05
25510;BME280;13413;52.336;21.200;2022-10-28T10:40:29;101305.20;;;20.44;62.35
25510;BME280;13413;52.336;21.200;2022-10-28T10:44:29;101304.86;;;20.59;61.68
25510;BME280;13413;52.336;21.200;2022-10-28T10:48:12;101295.30;;;20.98;60.51
25510;BME280;13413;52.336;21.200;2022-10-28T11:09:22;101265.89;;;21.19;58.96
25510;BME280;13413;52.336;21.200;2022-10-28T11:13:03;101253.19;;;21.37;59.29
25510;BME280;13413;52.336;21.200;2022-10-28T11:16:24;101250.41;;;21.60;58.54
25510;BME280;13413;52.336;21.200;2022-10-28T11:19:54;101249.10;;;21.86;58.14
25510;BME280;13413;52.336;21.200;2022-10-28T11:23:30;101248.14;;;21.94;58.10
25510;BME280;13413;52.336;21.200;2022-10-28T11:27:02;101239.11;;;22.23;57.22
25510;BME280;13413;52.336;21.200;2022-10-28T11:30:41;101234.91;;;22.22;57.18
25510;BME280;13413;52.336;21.200;2022-10-28T11:34:34;101241.99;;;22.43;56.86
25510;BME280;13413;52.336;21.200;2022-10-28T11:38:09;101237.13;;;22.41;56.13
25510;BME280;13413;52.336;21.200;2022-10-28T11:41:42;101232.63;;;22.40;56.34
25510;BME280;13413;52.336;21.200;2022-10-28T11:45:26;101229.58;;;22.65;56.39
25510;BME280;13413;52.336;21.200;2022-10-28T11:49:17;101222.98;;;22.85;56.01
25510;BME280;13413;52.336;21.200;2022-10-28T11:56:41;101224.11;;;22.87;54.94
25510;BME280;13413;52.336;21.200;2022-10-28T12:00:19;101223.63;;;22.75;54.80
25510;BME280;13413;52.336;21.200;2022-10-28T12:04:17;101225.23;;;22.86;55.24
25510;BME280;13413;52.336;21.200;2022-10-28T12:11:45;101221.70;;;22.94;54.67
25510;BME280;13413;52.336;21.200;2022-10-28T12:15:26;101215.39;;;22.97;54.37
25510;BME280;13413;52.336;21.200;2022-10-28T12:19:02;101207.18;;;22.97;54.29
25510;BME280;13413;52.336;21.200;2022-10-28T12:22:29;101202.40;;;22.93;54.32
25510;BME280;13413;52.336;21.200;2022-10-28T12:25:52;101201.61;;;22.85;54.57
25510;BME280;13413;52.336;21.200;2022-10-28T12:29:31;101195.77;;;22.85;54.45
25510;BME280;13413;52.336;21.200;2022-10-28T12:33:23;101190.60;;;22.62;54.23
25510;BME280;13413;52.336;21.200;2022-10-28T12:36:48;101188.04;;;22.61;54.48
25510;BME280;13413;52.336;21.200;2022-10-28T12:40:27;101188.83;;;22.73;54.57
25510;BME280;13413;52.336;21.200;2022-10-28T12:44:06;101188.71;;;22.81;54.39
25510;BME280;13413;52.336;21.200;2022-10-28T12:47:33;101188.94;;;22.82;54.36
25510;BME280;13413;52.336;21.200;2022-10-28T12:50:58;101184.17;;;22.75;54.28
25510;BME280;13413;52.336;21.200;2022-10-28T12:54:24;101175.52;;;22.70;54.57
25510;BME280;13413;52.336;21.200;2022-10-28T12:58:03;101169.62;;;22.62;54.58
25510;BME280;13413;52.336;21.200;2022-10-28T13:01:25;101167.60;;;22.52;54.60
25510;BME280;13413;52.336;21.200;2022-10-28T13:04:53;101160.68;;;22.59;54.70
25510;BME280;13413;52.336;21.200;2022-10-28T13:13:00;101153.09;;;22.68;54.56
25510;BME280;13413;52.336;21.200;2022-10-28T13:20:49;101146.64;;;22.87;54.62
25510;BME280;13413;52.336;21.200;2022-10-28T13:24:27;101147.65;;;22.82;54.23
25510;BME280;13413;52.336;21.200;2022-10-28T13:28:01;101148.23;;;22.82;54.28
25510;BME280;13413;52.336;21.200;2022-10-28T13:31:23;101156.06;;;22.81;54.39
25510;BME280;13413;52.336;21.200;2022-10-28T13:44:30;101158.02;;;22.77;53.75
25510;BME280;13413;52.336;21.200;2022-10-28T13:52:21;101181.13;;;22.46;54.00
25510;BME280;13413;52.336;21.200;2022-10-28T13:55:48;101195.91;;;22.40;54.33
25510;BME280;13413;52.336;21.200;2022-10-28T13:59:31;101213.75;;;22.33;54.31
25510;BME280;13413;52.336;21.200;2022-10-28T14:03:17;101226.58;;;22.27;54.56
25510;BME280;13413;52.336;21.200;2022-10-28T14:07:14;101242.16;;;22.18;54.69
25510;BME280;13413;52.336;21.200;2022-10-28T14:24:31;101213.83;;;21.73;55.63
25510;BME280;13413;52.336;21.200;2022-10-28T14:32:40;101190.42;;;21.49;56.15
25510;BME280;13413;52.336;21.200;2022-10-28T14:36:14;101180.57;;;21.33;56.43
25510;BME280;13413;52.336;21.200;2022-10-28T14:40:02;101183.84;;;21.29;56.67
25510;BME280;13413;52.336;21.200;2022-10-28T14:43:46;101186.17;;;21.30;56.81
25510;BME280;13413;52.336;21.200;2022-10-28T14:47:27;101183.55;;;21.29;56.95
25510;BME280;13413;52.336;21.200;2022-10-28T14:55:25;101164.48;;;21.16;57.53
25510;BME280;13413;52.336;21.200;2022-10-28T14:58:46;101150.77;;;21.03;57.88
25510;BME280;13413;52.336;21.200;2022-10-28T15:02:17;101137.50;;;20.87;58.66
25510;BME280;13413;52.336;21.200;2022-10-28T15:05:46;101131.46;;;20.69;59.16
25510;BME280;13413;52.336;21.200;2022-10-28T15:09:14;101128.94;;;20.57;59.53
25510;BME280;13413;52.336;21.200;2022-10-28T15:12:35;101133.74;;;20.53;59.73
25510;BME280;13413;52.336;21.200;2022-10-28T15:15:55;101132.52;;;20.50;59.79
25510;BME280;13413;52.336;21.200;2022-10-28T15:19:17;101125.98;;;20.46;60.15
25510;BME280;13413;52.336;21.200;2022-10-28T15:22:38;101111.02;;;20.38;60.38
25510;BME280;13413;52.336;21.200;2022-10-28T15:26:08;101108.49;;;20.33;60.63
25510;BME280;13413;52.336;21.200;2022-10-28T15:35:39;101097.80;;;20.12;61.63
25510;BME280;13413;52.336;21.200;2022-10-28T15:39:10;101090.62;;;20.03;62.11
25510;BME280;13413;52.336;21.200;2022-10-28T15:42:38;101078.52;;;19.94;62.35
25510;BME280;13413;52.336;21.200;2022-10-28T15:46:09;101084.19;;;19.88;62.29
25510;BME280;13413;52.336;21.200;2022-10-28T15:49:58;101077.95;;;19.79;62.75
25510;BME280;13413;52.336;21.200;2022-10-28T15:53:32;101066.55;;;19.69;63.15
25510;BME280;13413;52.336;21.200;2022-10-28T15:56:58;101067.50;;;19.63;63.38
25510;BME280;13413;52.336;21.200;2022-10-28T16:00:27;101067.00;;;19.59;63.57
25510;BME280;13413;52.336;21.200;2022-10-28T16:04:02;101066.30;;;19.58;63.61
25510;BME280;13413;52.336;21.200;2022-10-28T16:07:22;101054.05;;;19.55;63.82
25510;BME280;13413;52.336;21.200;2022-10-28T16:10:48;101060.61;;;19.55;63.81
25510;BME280;13413;52.336;21.200;2022-10-28T16:14:31;101054.75;;;19.51;64.29
25510;BME280;13413;52.336;21.200;2022-10-28T16:17:52;101058.96;;;19.48;64.39
25510;BME280;13413;52.336;21.200;2022-10-28T16:21:18;101058.74;;;19.48;64.43
25510;BME280;13413;52.336;21.200;2022-10-28T16:24:54;101055.77;;;19.47;64.46
25510;BME280;13413;52.336;21.200;2022-10-28T16:28:29;101048.50;;;19.44;64.65
25510;BME280;13413;52.336;21.200;2022-10-28T16:31:51;101042.29;;;19.41;65.00
25510;BME280;13413;52.336;21.200;2022-10-28T16:35:14;101045.18;;;19.43;64.80
25510;BME280;13413;52.336;21.200;2022-10-28T16:38:34;101045.23;;;19.45;64.75
25510;BME280;13413;52.336;21.200;2022-10-28T16:41:55;101041.61;;;19.47;64.77
25510;BME280;13413;52.336;21.200;2022-10-28T16:45:16;101049.50;;;19.51;64.73
25510;BME280;13413;52.336;21.200;2022-10-28T16:48:50;101059.21;;;19.53;64.74
25510;BME280;13413;52.336;21.200;2022-10-28T16:52:14;101056.98;;;19.57;64.62
25510;BME280;13413;52.336;21.200;2022-10-28T17:09:15;101075.78;;;19.72;64.49
25510;BME280;13413;52.336;21.200;2022-10-28T17:12:41;101078.08;;;19.76;64.43
25510;BME280;13413;52.336;21.200;2022-10-28T17:16:01;101079.17;;;19.78;64.40
25510;BME280;13413;52.336;21.200;2022-10-28T17:19:22;101081.59;;;19.75;64.38
25510;BME280;13413;52.336;21.200;2022-10-28T17:22:42;101073.52;;;19.69;64.39
25510;BME280;13413;52.336;21.200;2022-10-28T17:26:03;101073.73;;;19.62;64.45
25510;BME280;13413;52.336;21.200;2022-10-28T17:29:37;101071.61;;;19.56;64.52
25510;BME280;13413;52.336;21.200;2022-10-28T17:33:11;101066.91;;;19.47;64.64
25510;BME280;13413;52.336;21.200;2022-10-28T17:36:30;101069.11;;;19.43;64.76
25510;BME280;13413;52.336;21.200;2022-10-28T17:39:57;101071.48;;;19.43;64.80
25510;BME280;13413;52.336;21.200;2022-10-28T17:45:10;101075.56;;;19.48;64.71
25510;BME280;13413;52.336;21.200;2022-10-28T17:48:28;101079.71;;;19.52;64.55
25510;BME280;13413;52.336;21.200;2022-10-28T17:51:49;101079.35;;;19.52;64.45
25510;BME280;13413;52.336;21.200;2022-10-28T17:55:18;101080.73;;;19.43;64.44
25510;BME280;13413;52.336;21.200;2022-10-28T17:58:52;101079.45;;;19.33;64.52
25510;BME280;13413;52.336;21.200;2022-10-28T18:02:11;101066.38;;;19.15;64.70
25510;BME280;13413;52.336;21.200;2022-10-28T18:05:37;101053.65;;;19.04;64.91
25510;BME280;13413;52.336;21.200;2022-10-28T18:09:11;101044.67;;;18.96;65.20
25510;BME280;13413;52.336;21.200;2022-10-28T18:12:29;101037.09;;;18.90;65.24
25510;BME280;13413;52.336;21.200;2022-10-28T18:15:48;101039.46;;;18.82;65.38
25510;BME280;13413;52.336;21.200;2022-10-28T18:19:21;101046.43;;;18.80;65.50
25510;BME280;13413;52.336;21.200;2022-10-28T18:22:47;101036.17;;;18.79;65.66
25510;BME280;13413;52.336;21.200;2022-10-28T18:26:08;101030.16;;;18.76;65.74
25510;BME280;13413;52.336;21.200;2022-10-28T18:29:26;101026.64;;;18.74;65.78
25510;BME280;13413;52.336;21.200;2022-10-28T18:32:58;101031.64;;;18.75;65.85
25510;BME280;13413;52.336;21.200;2022-10-28T18:36:19;101038.27;;;18.77;65.80
25510;BME280;13413;52.336;21.200;2022-10-28T18:39:38;101030.44;;;18.74;65.77
25510;BME280;13413;52.336;21.200;2022-10-28T18:42:56;101027.48;;;18.68;65.93
25510;BME280;13413;52.336;21.200;2022-10-28T18:46:30;101023.66;;;18.62;66.01
25510;BME280;13413;52.336;21.200;2022-10-28T18:59:09;101012.16;;;18.52;66.34
25510;BME280;13413;52.336;21.200;2022-10-28T19:02:29;101017.77;;;18.51;66.37
25510;BME280;13413;52.336;21.200;2022-10-28T19:05:49;101015.52;;;18.48;66.60
25510;BME280;13413;52.336;21.200;2022-10-28T19:09:23;101024.52;;;18.52;66.60
25510;BME280;13413;52.336;21.200;2022-10-28T19:12:48;101017.71;;;18.61;66.53
25510;BME280;13413;52.336;21.200;2022-10-28T19:16:09;101012.93;;;18.59;66.56
25510;BME280;13413;52.336;21.200;2022-10-28T19:19:35;101011.27;;;18.58;66.67
25510;BME280;13413;52.336;21.200;2022-10-28T19:23:08;101008.09;;;18.59;66.71
25510;BME280;13413;52.336;21.200;2022-10-28T19:26:28;101005.48;;;18.59;66.81
25510;BME280;13413;52.336;21.200;2022-10-28T19:30:02;101000.40;;;18.61;66.85
25510;BME280;13413;52.336;21.200;2022-10-28T19:39:25;101022.79;;;18.73;66.59
25510;BME280;13413;52.336;21.200;2022-10-28T19:42:58;101021.59;;;18.74;66.63
25510;BME280;13413;52.336;21.200;2022-10-28T19:46:22;101020.87;;;18.72;66.61
25510;BME280;13413;52.336;21.200;2022-10-28T19:49:55;101026.41;;;18.69;66.57
25510;BME280;13413;52.336;21.200;2022-10-28T19:53:15;101025.08;;;18.70;66.57
25510;BME280;13413;52.336;21.200;2022-10-28T19:56:36;101018.38;;;18.72;66.45
25510;BME280;13413;52.336;21.200;2022-10-28T20:00:12;101016.98;;;18.70;66.44
25510;BME280;13413;52.336;21.200;2022-10-28T20:03:45;101010.27;;;18.63;66.51
25510;BME280;13413;52.336;21.200;2022-10-28T20:07:05;101014.70;;;18.61;66.57
25510;BME280;13413;52.336;21.200;2022-10-28T20:19:37;101016.80;;;18.40;66.66
25510;BME280;13413;52.336;21.200;2022-10-28T20:22:57;101021.84;;;18.39;66.64
25510;BME280;13413;52.336;21.200;2022-10-28T20:26:17;101019.68;;;18.39;66.47
25510;BME280;13413;52.336;21.200;2022-10-28T20:29:38;101025.59;;;18.37;66.48
25510;BME280;13413;52.336;21.200;2022-10-28T20:52:40;101028.72;;;18.09;66.76
25510;BME280;13413;52.336;21.200;2022-10-28T20:56:12;101005.08;;;18.00;66.99
25510;BME280;13413;52.336;21.200;2022-10-28T20:59:39;100983.54;;;17.93;67.28
25510;BME280;13413;52.336;21.200;2022-10-28T21:03:12;100958.29;;;17.96;67.41
25510;BME280;13413;52.336;21.200;2022-10-28T21:19:11;100983.61;;;18.21;67.31
25510;BME280;13413;52.336;21.200;2022-10-28T21:22:51;100977.88;;;18.18;67.22
25510;BME280;13413;52.336;21.200;2022-10-28T21:26:13;100970.30;;;18.08;67.34
25510;BME280;13413;52.336;21.200;2022-10-28T21:29:46;100968.66;;;18.01;67.45
25510;BME280;13413;52.336;21.200;2022-10-28T21:33:05;100970.27;;;17.98;67.51
25510;BME280;13413;52.336;21.200;2022-10-28T21:36:25;100965.07;;;17.99;67.46
25510;BME280;13413;52.336;21.200;2022-10-28T21:39:44;100958.10;;;17.89;67.37
25510;BME280;13413;52.336;21.200;2022-10-28T21:43:03;100953.89;;;17.72;67.58
25510;BME280;13413;52.336;21.200;2022-10-28T21:46:23;100951.39;;;17.66;67.76
25510;BME280;13413;52.336;21.200;2022-10-28T21:49:56;100950.69;;;17.69;67.66
25510;BME280;13413;52.336;21.200;2022-10-28T22:04:06;100921.60;;;17.40;68.23
25510;BME280;13413;52.336;21.200;2022-10-28T22:07:30;100929.60;;;17.32;68.35